createdAt,value
2018-10-03T00:01:48.155Z,73.20
2018-10-03T00:04:17.012Z,73.00
2018-10-03T00:06:45.887Z,73.00
2018-10-03T00:09:14.678Z,73.10
2018-10-03T00:11:43.513Z,73.40
2018-10-03T00:14:12.362Z,73.70
2018-10-03T00:16:41.137Z,73.80
2018-10-03T00:19:09.914Z,73.80
2018-10-03T00:21:38.705Z,74.00
2018-10-03T00:24:07.495Z,73.70
2018-10-03T00:26:36.298Z,73.80
2018-10-03T00:29:05.121Z,74.00
2018-10-03T00:31:33.980Z,73.90
2018-10-03T00:34:02.772Z,74.10
2018-10-03T00:36:31.580Z,74.50
2018-10-03T00:39:00.472Z,74.50
2018-10-03T00:41:29.326Z,74.60
2018-10-03T00:43:58.187Z,74.70
2018-10-03T00:46:26.971Z,75.00
2018-10-03T00:48:55.754Z,74.80
2018-10-03T00:51:24.538Z,74.60
2018-10-03T00:53:53.408Z,75.20
2018-10-03T00:56:22.197Z,75.00
2018-10-03T00:58:51.016Z,74.80
2018-10-03T01:01:19.857Z,74.70
2018-10-03T01:03:48.657Z,74.70
2018-10-03T01:06:17.427Z,74.50
2018-10-03T01:08:46.252Z,74.90
2018-10-03T01:11:15.051Z,75.20
2018-10-03T01:13:44.002Z,75.20
2018-10-03T01:16:12.802Z,75.20
2018-10-03T01:21:17.394Z,74.90
2018-10-03T01:23:46.175Z,74.80
2018-10-03T01:26:14.976Z,74.60
2018-10-03T01:28:43.820Z,74.60
2018-10-03T01:31:12.634Z,74.50
2018-10-03T01:33:41.515Z,74.20
2018-10-03T01:36:10.353Z,74.60
2018-10-03T01:38:39.204Z,74.40
2018-10-03T01:41:07.955Z,74.40
2018-10-03T01:43:36.816Z,74.50
2018-10-03T01:46:05.647Z,74.60
2018-10-03T01:48:34.431Z,74.30
2018-10-03T01:51:03.269Z,74.30
2018-10-03T01:53:32.133Z,74.40
2018-10-03T01:56:00.918Z,74.20
2018-10-03T01:58:29.723Z,74.10
2018-10-03T02:00:58.573Z,74.30
2018-10-03T02:03:27.308Z,74.40
2018-10-03T02:05:56.137Z,74.50
2018-10-03T02:08:24.935Z,74.40
2018-10-03T02:10:53.799Z,74.40
2018-10-03T02:13:22.585Z,74.30
2018-10-03T02:15:51.410Z,74.30
2018-10-03T02:18:20.297Z,74.50
2018-10-03T02:20:49.135Z,74.50
2018-10-03T02:23:18.055Z,74.20
2018-10-03T02:25:46.888Z,74.30
2018-10-03T02:28:15.724Z,74.30
2018-10-03T02:30:44.571Z,74.40
2018-10-03T02:33:13.370Z,74.40
2018-10-03T02:35:42.142Z,74.30
2018-10-03T02:38:10.938Z,74.30
2018-10-03T02:40:39.710Z,74.00
2018-10-03T02:43:08.472Z,74.00
2018-10-03T02:45:37.325Z,73.60
2018-10-03T02:48:06.218Z,73.90
2018-10-03T02:50:35.136Z,73.60
2018-10-03T02:53:04.069Z,73.60
2018-10-03T02:55:32.817Z,74.00
2018-10-03T02:58:01.770Z,73.70
2018-10-03T03:00:30.453Z,73.60
2018-10-03T03:02:59.287Z,73.70
2018-10-03T03:05:28.501Z,73.50
2018-10-03T03:07:57.360Z,73.30
2018-10-03T03:10:26.420Z,73.40
2018-10-03T03:12:55.288Z,73.20
2018-10-03T03:15:24.116Z,74.00
2018-10-03T03:17:52.985Z,73.30
2018-10-03T03:20:21.767Z,73.40
2018-10-03T03:22:51.000Z,73.60
2018-10-03T03:25:19.811Z,74.20
2018-10-03T03:27:48.649Z,73.20
2018-10-03T03:30:17.433Z,73.50
2018-10-03T03:32:46.265Z,73.50
2018-10-03T03:35:15.066Z,73.70
2018-10-03T03:37:43.838Z,73.90
2018-10-03T03:40:12.654Z,73.90
2018-10-03T03:42:41.424Z,74.00
2018-10-03T03:45:10.252Z,74.10
2018-10-03T03:47:39.044Z,74.40
2018-10-03T03:50:07.846Z,74.60
2018-10-03T03:52:36.637Z,74.40
2018-10-03T03:55:06.278Z,74.50
2018-10-03T03:57:35.157Z,74.60
2018-10-03T04:00:04.036Z,74.70
2018-10-03T04:02:32.811Z,74.70
2018-10-03T04:05:01.651Z,74.60
2018-10-03T04:07:30.517Z,74.90
2018-10-03T04:09:59.399Z,74.70
2018-10-03T04:12:28.202Z,74.50
2018-10-03T04:14:56.968Z,74.30
2018-10-03T04:17:25.826Z,74.30
2018-10-03T04:19:54.612Z,74.30
2018-10-03T04:22:23.482Z,74.50
2018-10-03T04:24:52.275Z,74.50
2018-10-03T04:27:21.041Z,74.20
2018-10-03T04:29:49.855Z,74.10
2018-10-03T04:32:18.692Z,74.20
2018-10-03T04:34:47.530Z,73.90
2018-10-03T04:37:16.281Z,73.90
2018-10-03T04:39:45.107Z,74.10
2018-10-03T04:42:13.911Z,74.10
2018-10-03T04:44:42.717Z,73.90
2018-10-03T04:47:11.487Z,73.70
2018-10-03T04:49:40.253Z,73.70
2018-10-03T04:52:09.104Z,73.80
2018-10-03T04:54:38.035Z,73.90
2018-10-03T04:57:06.935Z,74.10
2018-10-03T04:59:35.846Z,74.10
2018-10-03T05:02:04.720Z,74.40
2018-10-03T05:04:33.569Z,73.90
2018-10-03T05:07:03.354Z,74.40
2018-10-03T05:09:32.166Z,74.40
2018-10-03T05:12:02.960Z,74.20
2018-10-03T05:14:32.110Z,74.30
2018-10-03T05:17:00.924Z,74.80
2018-10-03T05:19:29.739Z,74.10
2018-10-03T05:21:58.562Z,74.70
2018-10-03T05:24:27.377Z,74.80
2018-10-03T05:26:56.254Z,74.50
2018-10-03T05:29:25.048Z,74.60
2018-10-03T05:31:53.793Z,74.60
2018-10-03T05:34:22.539Z,74.70
2018-10-03T05:36:51.389Z,74.80
2018-10-03T05:39:20.216Z,74.90
2018-10-03T05:41:49.019Z,75.00
2018-10-03T05:44:17.828Z,75.00
2018-10-03T05:46:46.614Z,74.90
2018-10-03T05:49:15.460Z,74.80
2018-10-03T05:51:44.254Z,74.80
2018-10-03T05:54:13.140Z,74.30
2018-10-03T05:56:42.121Z,74.20
2018-10-03T05:59:11.054Z,73.90
2018-10-03T06:01:39.894Z,73.80
2018-10-03T06:04:08.827Z,73.80
2018-10-03T06:06:37.629Z,73.60
2018-10-03T06:09:08.752Z,73.30
2018-10-03T06:11:37.655Z,73.00
2018-10-03T06:14:06.560Z,73.00
2018-10-03T06:16:35.343Z,73.10
2018-10-03T06:19:04.223Z,73.00
2018-10-03T06:21:33.419Z,72.50
2018-10-03T06:24:02.192Z,72.50
2018-10-03T06:26:31.503Z,72.40
2018-10-03T06:29:00.386Z,72.40
2018-10-03T06:31:29.192Z,72.70
2018-10-03T06:33:58.058Z,71.70
2018-10-03T06:36:27.340Z,72.10
2018-10-03T06:38:56.113Z,71.40
2018-10-03T06:41:25.275Z,71.00
2018-10-03T06:43:54.152Z,70.60
2018-10-03T06:46:22.933Z,69.60
2018-10-03T06:49:17.027Z,69.20
2018-10-03T06:51:53.748Z,70.00
2018-10-03T06:54:52.581Z,69.30
2018-10-03T06:57:21.382Z,67.70
2018-10-03T06:59:50.278Z,65.80
2018-10-03T07:02:19.213Z,65.30
2018-10-03T07:04:47.977Z,64.90
2018-10-03T07:07:16.914Z,64.50
2018-10-03T07:09:45.734Z,64.00
2018-10-03T07:12:14.612Z,63.60
2018-10-03T07:14:43.473Z,63.00
2018-10-03T07:17:12.363Z,62.20
2018-10-03T07:19:41.331Z,61.20
2018-10-03T07:22:10.147Z,62.20
2018-10-03T07:24:40.796Z,60.40
2018-10-03T07:27:09.970Z,59.00
2018-10-03T07:29:38.840Z,59.60
2018-10-03T07:32:07.661Z,59.40
2018-10-03T07:34:36.543Z,58.50
2018-10-03T07:37:05.456Z,58.00
2018-10-03T07:39:34.266Z,58.40
2018-10-03T07:42:03.147Z,57.10
2018-10-03T07:44:31.906Z,57.90
2018-10-03T07:47:00.669Z,57.40
2018-10-03T07:49:29.520Z,57.10
2018-10-03T07:51:58.274Z,57.90
2018-10-03T07:54:27.132Z,57.70
2018-10-03T07:56:55.985Z,58.10
2018-10-03T07:59:24.788Z,56.70
2018-10-03T08:01:53.814Z,55.90
2018-10-03T08:04:22.632Z,55.20
2018-10-03T08:06:51.411Z,55.20
2018-10-03T08:09:20.234Z,55.30
2018-10-03T08:11:49.097Z,55.40
2018-10-03T08:14:17.912Z,53.20
2018-10-03T08:16:46.671Z,53.30
2018-10-03T08:19:15.572Z,52.60
2018-10-03T08:21:44.366Z,53.80
2018-10-03T08:24:13.135Z,55.10
2018-10-03T08:26:41.911Z,54.80
2018-10-03T08:29:10.691Z,55.50
2018-10-03T08:31:39.626Z,53.00
2018-10-03T08:34:08.366Z,52.50
2018-10-03T08:36:37.251Z,52.30
2018-10-03T08:39:09.654Z,52.10
2018-10-03T08:41:38.554Z,51.30
2018-10-03T08:44:07.436Z,50.60
2018-10-03T08:46:36.813Z,53.00
2018-10-03T08:49:05.761Z,52.60
2018-10-03T08:51:34.644Z,52.70
2018-10-03T08:54:03.600Z,53.70
2018-10-03T08:56:32.390Z,54.10
2018-10-03T08:59:02.373Z,53.30
2018-10-03T09:01:31.231Z,54.30
2018-10-03T09:04:00.063Z,53.50
2018-10-03T09:06:28.890Z,53.60
2018-10-03T09:08:57.649Z,53.60
2018-10-03T09:11:26.585Z,53.90
2018-10-03T09:13:55.405Z,51.60
2018-10-03T09:16:24.273Z,51.70
2018-10-03T09:18:53.025Z,51.30
2018-10-03T09:21:21.959Z,50.40
2018-10-03T09:23:50.733Z,51.00
2018-10-03T09:26:19.950Z,51.40
2018-10-03T09:28:48.771Z,50.30
2018-10-03T09:31:17.643Z,50.10
2018-10-03T09:33:46.445Z,50.10
2018-10-03T09:36:15.324Z,51.70
2018-10-03T09:38:44.173Z,51.40
2018-10-03T09:41:12.915Z,51.40
2018-10-03T09:43:41.800Z,51.40
2018-10-03T09:46:10.628Z,52.60
2018-10-03T09:48:39.407Z,51.80
2018-10-03T09:51:08.276Z,51.00
2018-10-03T09:53:37.098Z,52.00
2018-10-03T09:56:05.937Z,50.80
2018-10-03T09:58:34.870Z,50.10
2018-10-03T10:01:08.854Z,50.50
2018-10-03T10:03:37.618Z,49.70
2018-10-03T10:06:06.437Z,50.50
2018-10-03T10:08:35.274Z,49.90
2018-10-03T10:11:04.052Z,47.50
2018-10-03T10:13:33.089Z,47.40
2018-10-03T10:16:01.949Z,46.20
2018-10-03T10:18:30.772Z,50.40
2018-10-03T10:20:59.639Z,48.30
2018-10-03T10:23:28.670Z,47.80
2018-10-03T10:25:57.437Z,48.70
2018-10-03T10:28:26.235Z,47.40
2018-10-03T10:31:01.598Z,46.60
2018-10-03T10:33:30.556Z,48.50
2018-10-03T10:35:59.428Z,47.60
2018-10-03T10:38:28.381Z,48.20
2018-10-03T10:40:57.231Z,48.50
2018-10-03T10:43:26.021Z,46.10
2018-10-03T10:45:54.838Z,47.00
2018-10-03T10:48:23.638Z,47.80
2018-10-03T10:50:52.503Z,47.20
2018-10-03T10:53:21.319Z,49.40
2018-10-03T10:55:50.090Z,49.00
2018-10-03T10:58:18.927Z,49.70
2018-10-03T11:00:47.744Z,50.20
2018-10-03T11:03:16.532Z,49.10
2018-10-03T11:05:45.413Z,51.00
2018-10-03T11:08:14.269Z,49.10
2018-10-03T11:10:43.048Z,49.80
2018-10-03T11:13:11.876Z,47.90
2018-10-03T11:15:40.744Z,48.20
2018-10-03T11:18:09.629Z,49.60
2018-10-03T11:20:38.481Z,50.10
2018-10-03T11:23:09.996Z,46.80
2018-10-03T11:25:38.863Z,45.20
2018-10-03T11:28:08.176Z,46.70
2018-10-03T11:30:38.472Z,47.50
2018-10-03T11:33:10.161Z,47.00
2018-10-03T11:35:40.188Z,45.40
2018-10-03T11:38:10.489Z,45.60
2018-10-03T11:40:39.786Z,46.70
2018-10-03T11:43:08.656Z,46.10
2018-10-03T11:45:39.002Z,45.10
2018-10-03T11:48:08.541Z,45.30
2018-10-03T11:50:37.939Z,45.00
2018-10-03T11:53:07.182Z,46.80
2018-10-03T11:55:37.456Z,47.00
2018-10-03T11:58:06.370Z,45.40
2018-10-03T12:00:35.548Z,46.40
2018-10-03T12:03:09.714Z,47.20
2018-10-03T12:05:40.827Z,46.10
2018-10-03T12:08:09.613Z,45.50
2018-10-03T12:10:38.439Z,45.20
2018-10-03T12:13:08.975Z,46.10
2018-10-03T12:15:37.942Z,47.10
2018-10-03T12:18:06.842Z,45.00
2018-10-03T12:20:35.733Z,44.90
2018-10-03T12:23:04.538Z,45.90
2018-10-03T12:25:33.425Z,44.90
2018-10-03T12:28:02.187Z,44.80
2018-10-03T12:30:30.989Z,44.10
2018-10-03T12:32:59.813Z,44.30
2018-10-03T12:35:36.173Z,44.20
2018-10-03T12:38:04.942Z,44.00
2018-10-03T12:40:33.875Z,42.10
2018-10-03T12:43:02.735Z,43.80
2018-10-03T12:45:31.517Z,45.40
2018-10-03T12:48:00.420Z,43.30
2018-10-03T12:50:29.321Z,44.70
2018-10-03T12:52:58.077Z,44.40
2018-10-03T12:55:26.901Z,45.50
2018-10-03T12:57:55.685Z,45.70
2018-10-03T13:00:30.137Z,45.10
2018-10-03T13:02:59.657Z,45.10
2018-10-03T13:05:29.069Z,45.10
2018-10-03T13:07:58.347Z,45.90
2018-10-03T13:10:27.110Z,46.30
2018-10-03T13:12:55.921Z,45.30
2018-10-03T13:15:24.766Z,43.70
2018-10-03T13:17:53.541Z,43.00
2018-10-03T13:20:22.410Z,44.00
2018-10-03T13:22:51.206Z,44.40
2018-10-03T13:25:20.301Z,43.60
2018-10-03T13:27:49.102Z,43.70
2018-10-03T13:30:17.929Z,43.30
2018-10-03T13:32:46.767Z,43.50
2018-10-03T13:35:15.572Z,43.80
2018-10-03T13:37:44.435Z,44.50
2018-10-03T13:40:13.221Z,46.90
2018-10-03T13:42:42.033Z,47.10
2018-10-03T13:45:10.823Z,47.40
2018-10-03T13:47:39.658Z,47.50
2018-10-03T13:50:08.543Z,47.00
2018-10-03T13:52:37.406Z,47.70
2018-10-03T13:55:06.248Z,47.20
2018-10-03T13:57:35.103Z,48.10
2018-10-03T14:00:03.985Z,46.60
2018-10-03T14:02:32.801Z,46.10
2018-10-03T14:05:01.627Z,45.40
2018-10-03T14:07:30.473Z,45.80
2018-10-03T14:09:59.982Z,47.60
2018-10-03T14:12:28.848Z,46.70
2018-10-03T14:14:57.698Z,47.00
2018-10-03T14:17:26.513Z,46.80
2018-10-03T14:19:57.531Z,47.00
2018-10-03T14:22:28.951Z,48.50
2018-10-03T14:24:57.754Z,46.70
2018-10-03T14:27:26.671Z,48.00
2018-10-03T14:29:55.565Z,48.10
2018-10-03T14:32:24.419Z,48.20
2018-10-03T14:34:53.248Z,47.90
2018-10-03T14:37:22.199Z,48.20
2018-10-03T14:39:51.116Z,47.80
2018-10-03T14:42:19.955Z,46.30
2018-10-03T14:44:48.756Z,48.00
2018-10-03T14:47:17.733Z,48.90
2018-10-03T14:49:46.584Z,49.20
2018-10-03T14:52:15.549Z,49.20
2018-10-03T14:54:44.339Z,49.10
2018-10-03T14:57:13.268Z,48.20
2018-10-03T14:59:42.774Z,47.20
2018-10-03T15:02:11.569Z,48.00
2018-10-03T15:04:40.372Z,48.30
2018-10-03T15:07:09.542Z,46.70
2018-10-03T15:09:38.443Z,46.70
2018-10-03T15:12:07.467Z,48.00
2018-10-03T15:14:37.890Z,48.20
2018-10-03T15:17:08.872Z,47.80
2018-10-03T15:19:38.064Z,48.30
2018-10-03T15:22:08.252Z,48.80
2018-10-03T15:24:38.237Z,49.90
2018-10-03T15:27:07.630Z,49.90
2018-10-03T15:29:38.655Z,48.70
2018-10-03T15:32:08.249Z,48.70
2018-10-03T15:34:37.195Z,49.00
2018-10-03T15:37:06.131Z,48.80
2018-10-03T15:39:34.941Z,48.70
2018-10-03T15:42:04.055Z,50.00
2018-10-03T15:44:32.849Z,50.00
2018-10-03T15:47:01.805Z,49.60
2018-10-03T15:49:30.562Z,49.40
2018-10-03T15:51:59.341Z,49.10
2018-10-03T15:54:28.346Z,49.00
2018-10-03T15:56:57.234Z,49.90
2018-10-03T15:59:25.987Z,50.10
2018-10-03T16:01:54.938Z,50.20
2018-10-03T16:04:23.725Z,50.40
2018-10-03T16:06:52.579Z,50.00
2018-10-03T16:09:21.443Z,50.50
2018-10-03T16:11:50.359Z,51.70
2018-10-03T16:14:19.247Z,51.60
2018-10-03T16:16:48.202Z,51.70
2018-10-03T16:19:17.070Z,52.00
2018-10-03T16:21:46.031Z,50.80
2018-10-03T16:24:14.821Z,51.10
2018-10-03T16:26:43.680Z,51.90
2018-10-03T16:29:12.428Z,51.50
2018-10-03T16:31:41.295Z,51.70
2018-10-03T16:34:18.621Z,52.20
2018-10-03T16:36:47.464Z,52.10
2018-10-03T16:39:16.488Z,52.90
2018-10-03T16:41:46.310Z,52.90
2018-10-03T16:44:29.304Z,53.10
2018-10-03T16:46:58.938Z,53.20
2018-10-03T16:49:27.748Z,53.70
2018-10-03T16:51:56.569Z,53.90
2018-10-03T16:54:25.467Z,54.10
2018-10-03T16:56:54.301Z,54.50
2018-10-03T16:59:23.156Z,55.30
2018-10-03T17:01:51.962Z,55.30
2018-10-03T17:04:20.734Z,55.80
2018-10-03T17:06:49.652Z,56.10
2018-10-03T17:09:18.432Z,56.30
2018-10-03T17:11:47.277Z,56.20
2018-10-03T17:14:26.074Z,56.50
2018-10-03T17:16:55.568Z,56.40
2018-10-03T17:19:24.444Z,56.70
2018-10-03T17:21:54.153Z,56.60
2018-10-03T17:24:25.971Z,56.70
2018-10-03T17:26:54.837Z,57.20
2018-10-03T17:29:23.677Z,57.70
2018-10-03T17:31:52.514Z,58.10
2018-10-03T17:34:21.701Z,57.70
2018-10-03T17:36:51.836Z,58.50
2018-10-03T17:39:21.711Z,58.20
2018-10-03T17:41:50.569Z,58.30
2018-10-03T17:44:20.106Z,58.70
2018-10-03T17:46:52.132Z,58.80
2018-10-03T17:49:20.924Z,58.30
2018-10-03T17:51:49.780Z,58.70
2018-10-03T17:54:25.083Z,58.80
2018-10-03T17:56:56.077Z,58.80
2018-10-03T17:59:28.156Z,59.60
2018-10-03T18:02:00.737Z,59.80
2018-10-03T18:04:36.118Z,59.10
2018-10-03T18:07:07.012Z,60.50
2018-10-03T18:09:42.505Z,60.70
2018-10-03T18:12:17.693Z,61.00
2018-10-03T18:14:46.589Z,63.40
2018-10-03T18:17:15.404Z,62.90
2018-10-03T18:19:44.205Z,63.70
2018-10-03T18:22:12.973Z,65.00
2018-10-03T18:24:41.765Z,66.90
2018-10-03T18:27:10.678Z,67.30
2018-10-03T18:29:39.485Z,67.40
2018-10-03T18:32:08.738Z,67.80
2018-10-03T18:34:37.795Z,69.10
2018-10-03T18:37:06.605Z,69.00
2018-10-03T18:39:35.462Z,69.30
2018-10-03T18:42:04.258Z,69.90
2018-10-03T18:44:33.092Z,69.90
2018-10-03T18:47:01.910Z,69.80
2018-10-03T18:49:33.752Z,70.00
2018-10-03T18:52:03.178Z,70.40
2018-10-03T18:54:34.009Z,70.30
2018-10-03T18:57:04.353Z,69.90
2018-10-03T18:59:33.256Z,70.30
2018-10-03T19:02:03.769Z,70.60
2018-10-03T19:04:37.281Z,70.60
2018-10-03T19:07:12.199Z,71.40
2018-10-03T19:09:41.206Z,71.10
2018-10-03T19:12:10.195Z,71.60
2018-10-03T19:14:38.977Z,72.20
2018-10-03T19:17:07.846Z,73.40
2018-10-03T19:19:38.968Z,73.30
2018-10-03T19:22:08.033Z,74.10
2018-10-03T19:24:37.017Z,74.90
2018-10-03T19:27:05.753Z,74.00
2018-10-03T19:29:34.557Z,73.70
2018-10-03T19:32:03.334Z,74.30
2018-10-03T19:34:32.132Z,74.40
2018-10-03T19:37:01.010Z,74.00
2018-10-03T19:39:29.817Z,74.00
2018-10-03T19:41:58.842Z,74.40
2018-10-03T19:44:27.724Z,74.70
2018-10-03T19:46:56.651Z,75.00
2018-10-03T19:49:25.440Z,74.80
2018-10-03T19:51:54.228Z,74.70
2018-10-03T19:54:23.046Z,73.80
2018-10-03T19:56:51.834Z,73.10
2018-10-03T19:59:20.601Z,72.70
2018-10-03T20:01:50.765Z,72.20
2018-10-03T20:04:19.617Z,71.40
2018-10-03T20:06:48.469Z,70.90
2018-10-03T20:09:17.396Z,69.90
2018-10-03T20:11:46.245Z,69.30
2018-10-03T20:14:15.044Z,69.00
2018-10-03T20:16:44.071Z,68.00
2018-10-03T20:19:12.902Z,67.80
2018-10-03T20:21:41.886Z,67.80
2018-10-03T20:24:10.709Z,67.60
2018-10-03T20:26:39.596Z,67.30
2018-10-03T20:29:08.449Z,67.30
2018-10-03T20:31:38.418Z,67.30
2018-10-03T20:34:07.421Z,67.00
2018-10-03T20:36:36.217Z,67.00
2018-10-03T20:39:06.843Z,67.00
2018-10-03T20:41:35.802Z,67.00
2018-10-03T20:44:05.133Z,67.20
2018-10-03T20:46:33.911Z,67.40
2018-10-03T20:49:02.793Z,67.60
2018-10-03T20:51:31.589Z,68.00
2018-10-03T20:54:00.332Z,68.00
2018-10-03T20:56:30.601Z,68.00
2018-10-03T20:58:59.391Z,68.60
2018-10-03T21:01:28.204Z,68.90
2018-10-03T21:03:57.124Z,69.20
2018-10-03T21:06:26.696Z,69.70
2018-10-03T21:08:56.023Z,70.40
2018-10-03T21:11:26.003Z,70.50
2018-10-03T21:13:55.698Z,71.10
2018-10-03T21:16:24.789Z,70.80
2018-10-03T21:18:53.712Z,71.00
2018-10-03T21:21:22.587Z,71.10
2018-10-03T21:23:51.420Z,71.20
2018-10-03T21:26:22.197Z,71.40
2018-10-03T21:28:51.060Z,71.00
2018-10-03T21:31:19.884Z,70.90
2018-10-03T21:33:54.556Z,71.10
2018-10-03T21:36:23.362Z,70.90
2018-10-03T21:38:52.215Z,71.70
2018-10-03T21:41:21.446Z,71.80
2018-10-03T21:43:54.417Z,72.00
2018-10-03T21:46:23.168Z,71.80
2018-10-03T21:48:52.061Z,71.90
2018-10-03T21:51:20.925Z,71.30
2018-10-03T21:53:49.900Z,70.90
2018-10-03T21:56:18.720Z,71.00
2018-10-03T21:58:47.696Z,71.00
2018-10-03T22:01:16.649Z,71.50
2018-10-03T22:03:45.509Z,71.60
2018-10-03T22:06:14.293Z,72.00
2018-10-03T22:08:43.103Z,72.10
2018-10-03T22:11:11.938Z,72.70
2018-10-03T22:13:47.828Z,72.90
2018-10-03T22:16:18.309Z,73.60
2018-10-03T22:18:47.324Z,74.20
2018-10-03T22:21:16.118Z,74.10
2018-10-03T22:23:44.963Z,74.70
2018-10-03T22:26:13.832Z,74.70
2018-10-03T22:28:42.671Z,75.10
2018-10-03T22:31:11.494Z,74.90
2018-10-03T22:33:40.286Z,74.60
2018-10-03T22:36:09.616Z,74.10
2018-10-03T22:38:38.431Z,75.00
2018-10-03T22:41:07.175Z,74.70
2018-10-03T22:43:36.613Z,74.90
2018-10-03T22:46:05.677Z,74.30
2018-10-03T22:48:35.757Z,74.00
2018-10-03T22:51:04.681Z,73.70
2018-10-03T22:53:35.167Z,73.50
2018-10-03T22:56:08.544Z,73.70
2018-10-03T22:58:37.471Z,73.20
2018-10-03T23:01:06.531Z,72.40
2018-10-03T23:03:35.369Z,72.70
2018-10-03T23:06:04.214Z,72.50
2018-10-03T23:08:33.022Z,71.90
2018-10-03T23:11:02.104Z,72.30
2018-10-03T23:13:31.004Z,72.10
2018-10-03T23:15:59.789Z,72.00
2018-10-03T23:18:28.616Z,71.90
2018-10-03T23:20:57.576Z,71.90
2018-10-03T23:23:26.355Z,71.60
2018-10-03T23:25:56.535Z,71.70
2018-10-03T23:28:27.450Z,71.20
2018-10-03T23:30:58.358Z,71.20
2018-10-03T23:33:30.380Z,71.40
2018-10-03T23:36:01.324Z,71.70
2018-10-03T23:38:30.272Z,71.80
2018-10-03T23:40:59.089Z,71.60
2018-10-03T23:43:27.877Z,71.60
2018-10-03T23:45:56.743Z,72.00
2018-10-03T23:48:25.518Z,72.60
2018-10-03T23:50:56.570Z,72.70
2018-10-03T23:53:25.344Z,73.00
2018-10-03T23:55:54.110Z,73.50
2018-10-03T23:58:23.024Z,74.50
